sensor_id;sensor_type;location;lat;lon;timestamp;P1;durP1;ratioP1;P2;durP2;ratioP2
12780;SDS011;6454;43.304;24.344;2024-03-08T00:00:13;29.88;;;14.88;;
12780;SDS011;6454;43.304;24.344;2024-03-08T00:02:40;25.60;;;12.30;;
12780;SDS011;6454;43.304;24.344;2024-03-08T00:05:09;25.73;;;13.60;;
12780;SDS011;6454;43.304;24.344;2024-03-08T00:07:35;23.95;;;12.98;;
12780;SDS011;6454;43.304;24.344;2024-03-08T00:10:02;21.42;;;13.65;;
12780;SDS011;6454;43.304;24.344;2024-03-08T00:12:31;24.83;;;13.45;;
12780;SDS011;6454;43.304;24.344;2024-03-08T00:14:57;25.45;;;12.85;;
12780;SDS011;6454;43.304;24.344;2024-03-08T00:17:22;20.08;;;10.63;;
12780;SDS011;6454;43.304;24.344;2024-03-08T00:19:50;21.83;;;10.55;;
12780;SDS011;6454;43.304;24.344;2024-03-08T00:22:16;19.23;;;10.82;;
12780;SDS011;6454;43.304;24.344;2024-03-08T00:24:42;18.08;;;9.07;;
12780;SDS011;6454;43.304;24.344;2024-03-08T00:27:08;18.60;;;10.18;;
12780;SDS011;6454;43.304;24.344;2024-03-08T00:29:34;23.65;;;10.32;;
12780;SDS011;6454;43.304;24.344;2024-03-08T00:32:00;20.13;;;9.85;;
12780;SDS011;6454;43.304;24.344;2024-03-08T00:34:26;23.35;;;11.93;;
12780;SDS011;6454;43.304;24.344;2024-03-08T00:36:51;18.02;;;10.70;;
12780;SDS011;6454;43.304;24.344;2024-03-08T00:39:17;23.20;;;11.52;;
12780;SDS011;6454;43.304;24.344;2024-03-08T00:41:45;22.20;;;11.52;;
12780;SDS011;6454;43.304;24.344;2024-03-08T00:44:10;18.98;;;9.98;;
12780;SDS011;6454;43.304;24.344;2024-03-08T00:46:36;22.45;;;10.82;;
12780;SDS011;6454;43.304;24.344;2024-03-08T00:49:01;19.55;;;9.77;;
12780;SDS011;6454;43.304;24.344;2024-03-08T00:51:27;24.13;;;10.57;;
12780;SDS011;6454;43.304;24.344;2024-03-08T00:53:52;20.25;;;10.35;;
12780;SDS011;6454;43.304;24.344;2024-03-08T00:56:18;21.27;;;10.55;;
12780;SDS011;6454;43.304;24.344;2024-03-08T00:58:44;22.13;;;10.93;;
12780;SDS011;6454;43.304;24.344;2024-03-08T01:01:09;24.50;;;11.48;;
12780;SDS011;6454;43.304;24.344;2024-03-08T01:03:35;23.33;;;11.63;;
12780;SDS011;6454;43.304;24.344;2024-03-08T01:06:01;16.85;;;9.25;;
12780;SDS011;6454;43.304;24.344;2024-03-08T01:08:27;20.15;;;10.75;;
12780;SDS011;6454;43.304;24.344;2024-03-08T01:10:53;16.63;;;8.82;;
12780;SDS011;6454;43.304;24.344;2024-03-08T01:13:19;17.17;;;8.60;;
12780;SDS011;6454;43.304;24.344;2024-03-08T01:15:44;13.00;;;7.25;;
12780;SDS011;6454;43.304;24.344;2024-03-08T01:18:10;14.30;;;8.02;;
12780;SDS011;6454;43.304;24.344;2024-03-08T01:20:36;14.88;;;7.78;;
12780;SDS011;6454;43.304;24.344;2024-03-08T01:23:02;16.33;;;8.38;;
12780;SDS011;6454;43.304;24.344;2024-03-08T01:25:30;17.00;;;8.73;;
12780;SDS011;6454;43.304;24.344;2024-03-08T01:27:57;15.93;;;8.65;;
12780;SDS011;6454;43.304;24.344;2024-03-08T01:30:22;17.45;;;9.40;;
12780;SDS011;6454;43.304;24.344;2024-03-08T01:32:48;15.90;;;9.50;;
12780;SDS011;6454;43.304;24.344;2024-03-08T01:35:13;19.23;;;9.52;;
12780;SDS011;6454;43.304;24.344;2024-03-08T01:37:39;19.30;;;9.65;;
12780;SDS011;6454;43.304;24.344;2024-03-08T01:40:05;16.92;;;8.95;;
12780;SDS011;6454;43.304;24.344;2024-03-08T01:42:33;20.83;;;9.73;;
12780;SDS011;6454;43.304;24.344;2024-03-08T01:44:59;22.25;;;9.07;;
12780;SDS011;6454;43.304;24.344;2024-03-08T01:47:24;21.25;;;9.77;;
12780;SDS011;6454;43.304;24.344;2024-03-08T01:49:50;19.40;;;10.48;;
12780;SDS011;6454;43.304;24.344;2024-03-08T01:52:16;19.08;;;8.75;;
12780;SDS011;6454;43.304;24.344;2024-03-08T01:54:45;20.73;;;10.35;;
12780;SDS011;6454;43.304;24.344;2024-03-08T01:57:11;18.67;;;10.27;;
12780;SDS011;6454;43.304;24.344;2024-03-08T01:59:38;19.45;;;10.23;;
12780;SDS011;6454;43.304;24.344;2024-03-08T02:02:05;20.33;;;10.13;;
12780;SDS011;6454;43.304;24.344;2024-03-08T02:04:33;21.13;;;9.45;;
12780;SDS011;6454;43.304;24.344;2024-03-08T02:06:59;22.65;;;10.38;;
12780;SDS011;6454;43.304;24.344;2024-03-08T02:09:25;24.92;;;10.88;;
12780;SDS011;6454;43.304;24.344;2024-03-08T02:11:51;22.30;;;11.05;;
12780;SDS011;6454;43.304;24.344;2024-03-08T02:14:17;23.25;;;10.98;;
12780;SDS011;6454;43.304;24.344;2024-03-08T02:16:43;22.27;;;10.30;;
12780;SDS011;6454;43.304;24.344;2024-03-08T02:19:09;20.83;;;10.55;;
12780;SDS011;6454;43.304;24.344;2024-03-08T02:21:34;20.02;;;10.30;;
12780;SDS011;6454;43.304;24.344;2024-03-08T02:24:01;25.08;;;11.10;;
12780;SDS011;6454;43.304;24.344;2024-03-08T02:26:27;22.33;;;10.43;;
12780;SDS011;6454;43.304;24.344;2024-03-08T02:28:52;20.00;;;10.50;;
12780;SDS011;6454;43.304;24.344;2024-03-08T02:31:18;22.08;;;11.52;;
12780;SDS011;6454;43.304;24.344;2024-03-08T02:33:43;25.58;;;10.75;;
12780;SDS011;6454;43.304;24.344;2024-03-08T02:36:09;22.80;;;11.15;;
12780;SDS011;6454;43.304;24.344;2024-03-08T02:38:34;21.92;;;10.57;;
12780;SDS011;6454;43.304;24.344;2024-03-08T02:41:00;25.50;;;12.80;;
12780;SDS011;6454;43.304;24.344;2024-03-08T02:43:25;23.30;;;11.65;;
12780;SDS011;6454;43.304;24.344;2024-03-08T02:45:51;25.95;;;11.32;;
12780;SDS011;6454;43.304;24.344;2024-03-08T02:48:19;22.10;;;12.25;;
12780;SDS011;6454;43.304;24.344;2024-03-08T02:50:46;27.83;;;12.82;;
12780;SDS011;6454;43.304;24.344;2024-03-08T02:53:12;24.52;;;12.10;;
12780;SDS011;6454;43.304;24.344;2024-03-08T02:55:38;25.58;;;10.70;;
12780;SDS011;6454;43.304;24.344;2024-03-08T02:58:06;24.80;;;11.25;;
12780;SDS011;6454;43.304;24.344;2024-03-08T03:00:34;23.42;;;11.90;;
12780;SDS011;6454;43.304;24.344;2024-03-08T03:03:01;27.45;;;12.85;;
12780;SDS011;6454;43.304;24.344;2024-03-08T03:05:28;25.25;;;11.75;;
12780;SDS011;6454;43.304;24.344;2024-03-08T03:07:57;29.55;;;12.63;;
12780;SDS011;6454;43.304;24.344;2024-03-08T03:10:25;26.70;;;12.77;;
12780;SDS011;6454;43.304;24.344;2024-03-08T03:12:51;26.17;;;12.45;;
12780;SDS011;6454;43.304;24.344;2024-03-08T03:15:17;29.05;;;12.43;;
12780;SDS011;6454;43.304;24.344;2024-03-08T03:17:49;26.65;;;13.07;;
12780;SDS011;6454;43.304;24.344;2024-03-08T03:20:16;27.75;;;12.35;;
12780;SDS011;6454;43.304;24.344;2024-03-08T03:22:48;27.02;;;11.98;;
12780;SDS011;6454;43.304;24.344;2024-03-08T03:25:17;27.15;;;12.82;;
12780;SDS011;6454;43.304;24.344;2024-03-08T03:27:50;23.92;;;11.65;;
12780;SDS011;6454;43.304;24.344;2024-03-08T03:30:16;27.75;;;13.25;;
12780;SDS011;6454;43.304;24.344;2024-03-08T03:32:48;26.70;;;13.15;;
12780;SDS011;6454;43.304;24.344;2024-03-08T03:35:16;26.00;;;13.30;;
12780;SDS011;6454;43.304;24.344;2024-03-08T03:37:42;29.48;;;11.90;;
12780;SDS011;6454;43.304;24.344;2024-03-08T03:40:10;24.50;;;12.20;;
12780;SDS011;6454;43.304;24.344;2024-03-08T03:42:38;27.52;;;13.10;;
12780;SDS011;6454;43.304;24.344;2024-03-08T03:45:05;27.10;;;12.50;;
12780;SDS011;6454;43.304;24.344;2024-03-08T03:47:31;23.52;;;12.45;;
12780;SDS011;6454;43.304;24.344;2024-03-08T03:49:56;24.17;;;10.73;;
12780;SDS011;6454;43.304;24.344;2024-03-08T03:52:26;22.35;;;11.48;;
12780;SDS011;6454;43.304;24.344;2024-03-08T03:54:52;32.22;;;12.73;;
12780;SDS011;6454;43.304;24.344;2024-03-08T03:57:17;27.88;;;12.75;;
12780;SDS011;6454;43.304;24.344;2024-03-08T03:59:43;25.50;;;13.15;;
12780;SDS011;6454;43.304;24.344;2024-03-08T04:02:09;30.17;;;13.23;;
12780;SDS011;6454;43.304;24.344;2024-03-08T04:04:34;25.38;;;11.02;;
12780;SDS011;6454;43.304;24.344;2024-03-08T04:07:00;25.70;;;12.07;;
12780;SDS011;6454;43.304;24.344;2024-03-08T04:09:27;28.15;;;12.77;;
12780;SDS011;6454;43.304;24.344;2024-03-08T04:11:52;27.05;;;13.35;;
12780;SDS011;6454;43.304;24.344;2024-03-08T04:14:20;27.88;;;12.48;;
12780;SDS011;6454;43.304;24.344;2024-03-08T04:16:46;24.58;;;11.25;;
12780;SDS011;6454;43.304;24.344;2024-03-08T04:19:14;27.38;;;12.27;;
12780;SDS011;6454;43.304;24.344;2024-03-08T04:21:42;26.35;;;12.30;;
12780;SDS011;6454;43.304;24.344;2024-03-08T04:24:07;26.98;;;12.30;;
12780;SDS011;6454;43.304;24.344;2024-03-08T04:26:34;26.88;;;13.05;;
12780;SDS011;6454;43.304;24.344;2024-03-08T04:29:02;29.80;;;13.43;;
12780;SDS011;6454;43.304;24.344;2024-03-08T04:31:28;24.73;;;12.98;;
12780;SDS011;6454;43.304;24.344;2024-03-08T04:33:53;28.73;;;13.57;;
12780;SDS011;6454;43.304;24.344;2024-03-08T04:36:19;24.00;;;11.85;;
12780;SDS011;6454;43.304;24.344;2024-03-08T04:38:44;24.33;;;11.88;;
12780;SDS011;6454;43.304;24.344;2024-03-08T04:41:10;27.73;;;13.45;;
12780;SDS011;6454;43.304;24.344;2024-03-08T04:43:36;28.17;;;13.85;;
12780;SDS011;6454;43.304;24.344;2024-03-08T04:46:01;30.00;;;14.18;;
12780;SDS011;6454;43.304;24.344;2024-03-08T04:48:28;25.33;;;12.82;;
12780;SDS011;6454;43.304;24.344;2024-03-08T04:50:54;26.30;;;12.13;;
12780;SDS011;6454;43.304;24.344;2024-03-08T04:53:20;30.58;;;12.77;;
12780;SDS011;6454;43.304;24.344;2024-03-08T04:55:46;35.78;;;16.00;;
12780;SDS011;6454;43.304;24.344;2024-03-08T04:58:11;32.88;;;17.02;;
12780;SDS011;6454;43.304;24.344;2024-03-08T05:00:37;29.67;;;15.80;;
12780;SDS011;6454;43.304;24.344;2024-03-08T05:03:02;29.00;;;14.25;;
12780;SDS011;6454;43.304;24.344;2024-03-08T05:05:29;27.40;;;13.30;;
12780;SDS011;6454;43.304;24.344;2024-03-08T05:07:55;25.38;;;12.70;;
12780;SDS011;6454;43.304;24.344;2024-03-08T05:10:20;28.80;;;13.73;;
12780;SDS011;6454;43.304;24.344;2024-03-08T05:12:46;25.65;;;13.68;;
12780;SDS011;6454;43.304;24.344;2024-03-08T05:15:12;24.67;;;12.32;;
12780;SDS011;6454;43.304;24.344;2024-03-08T05:17:37;29.23;;;13.88;;
12780;SDS011;6454;43.304;24.344;2024-03-08T05:20:05;26.73;;;12.32;;
12780;SDS011;6454;43.304;24.344;2024-03-08T05:22:33;25.52;;;13.13;;
12780;SDS011;6454;43.304;24.344;2024-03-08T05:24:59;24.73;;;12.43;;
12780;SDS011;6454;43.304;24.344;2024-03-08T05:27:24;22.38;;;11.35;;
12780;SDS011;6454;43.304;24.344;2024-03-08T05:29:49;27.23;;;12.77;;
12780;SDS011;6454;43.304;24.344;2024-03-08T05:32:15;29.65;;;13.45;;
12780;SDS011;6454;43.304;24.344;2024-03-08T05:34:42;28.38;;;12.55;;
12780;SDS011;6454;43.304;24.344;2024-03-08T05:37:07;32.92;;;15.20;;
12780;SDS011;6454;43.304;24.344;2024-03-08T05:39:33;31.45;;;15.93;;
12780;SDS011;6454;43.304;24.344;2024-03-08T05:41:59;29.27;;;14.98;;
12780;SDS011;6454;43.304;24.344;2024-03-08T05:44:24;30.95;;;14.52;;
12780;SDS011;6454;43.304;24.344;2024-03-08T05:46:51;27.65;;;14.35;;
12780;SDS011;6454;43.304;24.344;2024-03-08T05:49:17;32.65;;;13.50;;
12780;SDS011;6454;43.304;24.344;2024-03-08T05:51:43;30.10;;;14.65;;
12780;SDS011;6454;43.304;24.344;2024-03-08T05:54:09;31.63;;;13.73;;
12780;SDS011;6454;43.304;24.344;2024-03-08T05:56:36;25.67;;;12.68;;
12780;SDS011;6454;43.304;24.344;2024-03-08T05:59:03;29.38;;;13.93;;
12780;SDS011;6454;43.304;24.344;2024-03-08T06:01:29;28.85;;;14.10;;
12780;SDS011;6454;43.304;24.344;2024-03-08T06:03:55;24.45;;;12.93;;
12780;SDS011;6454;43.304;24.344;2024-03-08T06:06:24;27.08;;;13.30;;
12780;SDS011;6454;43.304;24.344;2024-03-08T06:08:50;25.65;;;12.82;;
12780;SDS011;6454;43.304;24.344;2024-03-08T06:11:17;25.65;;;12.52;;
12780;SDS011;6454;43.304;24.344;2024-03-08T06:13:44;23.88;;;12.70;;
12780;SDS011;6454;43.304;24.344;2024-03-08T06:16:10;29.58;;;14.52;;
12780;SDS011;6454;43.304;24.344;2024-03-08T06:18:35;24.52;;;11.77;;
12780;SDS011;6454;43.304;24.344;2024-03-08T06:21:04;23.75;;;11.98;;
12780;SDS011;6454;43.304;24.344;2024-03-08T06:23:34;22.38;;;11.20;;
12780;SDS011;6454;43.304;24.344;2024-03-08T06:26:05;22.33;;;11.55;;
12780;SDS011;6454;43.304;24.344;2024-03-08T06:28:30;25.30;;;11.48;;
12780;SDS011;6454;43.304;24.344;2024-03-08T06:30:57;27.77;;;12.50;;
12780;SDS011;6454;43.304;24.344;2024-03-08T06:33:23;26.30;;;13.55;;
12780;SDS011;6454;43.304;24.344;2024-03-08T06:35:51;24.80;;;13.35;;
12780;SDS011;6454;43.304;24.344;2024-03-08T06:38:17;27.60;;;13.80;;
12780;SDS011;6454;43.304;24.344;2024-03-08T06:40:43;23.73;;;12.23;;
12780;SDS011;6454;43.304;24.344;2024-03-08T06:43:09;22.17;;;11.35;;
12780;SDS011;6454;43.304;24.344;2024-03-08T06:45:36;24.10;;;11.75;;
12780;SDS011;6454;43.304;24.344;2024-03-08T06:48:03;22.58;;;11.35;;
12780;SDS011;6454;43.304;24.344;2024-03-08T06:50:28;27.33;;;12.02;;
12780;SDS011;6454;43.304;24.344;2024-03-08T06:52:54;27.17;;;11.68;;
12780;SDS011;6454;43.304;24.344;2024-03-08T06:55:19;24.08;;;11.35;;
12780;SDS011;6454;43.304;24.344;2024-03-08T06:57:45;26.63;;;13.35;;
12780;SDS011;6454;43.304;24.344;2024-03-08T07:00:11;25.92;;;12.77;;
12780;SDS011;6454;43.304;24.344;2024-03-08T07:02:40;27.30;;;13.75;;
12780;SDS011;6454;43.304;24.344;2024-03-08T07:05:05;29.63;;;13.40;;
12780;SDS011;6454;43.304;24.344;2024-03-08T07:07:35;24.52;;;12.57;;
12780;SDS011;6454;43.304;24.344;2024-03-08T07:10:01;27.85;;;14.27;;
12780;SDS011;6454;43.304;24.344;2024-03-08T07:12:26;25.52;;;12.88;;
12780;SDS011;6454;43.304;24.344;2024-03-08T07:14:52;25.10;;;12.25;;
12780;SDS011;6454;43.304;24.344;2024-03-08T07:17:18;23.05;;;11.30;;
12780;SDS011;6454;43.304;24.344;2024-03-08T07:19:43;28.65;;;12.77;;
12780;SDS011;6454;43.304;24.344;2024-03-08T07:22:10;27.58;;;13.57;;
12780;SDS011;6454;43.304;24.344;2024-03-08T07:24:36;34.60;;;16.17;;
12780;SDS011;6454;43.304;24.344;2024-03-08T07:27:13;30.35;;;14.45;;
12780;SDS011;6454;43.304;24.344;2024-03-08T07:29:39;25.85;;;12.30;;
12780;SDS011;6454;43.304;24.344;2024-03-08T07:32:04;23.05;;;12.75;;
12780;SDS011;6454;43.304;24.344;2024-03-08T07:34:44;22.95;;;11.18;;
12780;SDS011;6454;43.304;24.344;2024-03-08T07:37:09;23.75;;;13.10;;
12780;SDS011;6454;43.304;24.344;2024-03-08T07:39:38;29.55;;;12.88;;
12780;SDS011;6454;43.304;24.344;2024-03-08T07:42:04;30.48;;;13.98;;
12780;SDS011;6454;43.304;24.344;2024-03-08T07:44:30;28.75;;;14.10;;
12780;SDS011;6454;43.304;24.344;2024-03-08T07:46:56;25.10;;;12.00;;
12780;SDS011;6454;43.304;24.344;2024-03-08T07:49:22;27.20;;;13.27;;
12780;SDS011;6454;43.304;24.344;2024-03-08T07:51:47;30.48;;;13.82;;
12780;SDS011;6454;43.304;24.344;2024-03-08T07:54:14;25.45;;;12.75;;
12780;SDS011;6454;43.304;24.344;2024-03-08T07:56:40;30.30;;;13.82;;
12780;SDS011;6454;43.304;24.344;2024-03-08T07:59:05;29.77;;;14.00;;
12780;SDS011;6454;43.304;24.344;2024-03-08T08:01:31;27.88;;;14.80;;
12780;SDS011;6454;43.304;24.344;2024-03-08T08:03:58;25.77;;;12.73;;
12780;SDS011;6454;43.304;24.344;2024-03-08T08:06:24;27.80;;;13.60;;
12780;SDS011;6454;43.304;24.344;2024-03-08T08:08:50;27.92;;;12.95;;
12780;SDS011;6454;43.304;24.344;2024-03-08T08:11:16;30.88;;;14.18;;
12780;SDS011;6454;43.304;24.344;2024-03-08T08:13:41;30.77;;;13.85;;
12780;SDS011;6454;43.304;24.344;2024-03-08T08:16:08;29.60;;;13.77;;
12780;SDS011;6454;43.304;24.344;2024-03-08T08:18:34;28.90;;;14.63;;
12780;SDS011;6454;43.304;24.344;2024-03-08T08:21:01;31.08;;;14.50;;
12780;SDS011;6454;43.304;24.344;2024-03-08T08:23:26;34.55;;;15.00;;
12780;SDS011;6454;43.304;24.344;2024-03-08T08:25:52;38.58;;;16.48;;
12780;SDS011;6454;43.304;24.344;2024-03-08T08:28:17;32.95;;;14.13;;
12780;SDS011;6454;43.304;24.344;2024-03-08T08:30:46;32.20;;;15.73;;
12780;SDS011;6454;43.304;24.344;2024-03-08T08:33:12;35.47;;;16.27;;
12780;SDS011;6454;43.304;24.344;2024-03-08T08:35:40;39.42;;;16.00;;
12780;SDS011;6454;43.304;24.344;2024-03-08T08:38:06;34.15;;;16.40;;
12780;SDS011;6454;43.304;24.344;2024-03-08T08:40:32;39.75;;;17.83;;
12780;SDS011;6454;43.304;24.344;2024-03-08T08:42:58;37.58;;;16.55;;
12780;SDS011;6454;43.304;24.344;2024-03-08T08:45:24;36.58;;;16.63;;
12780;SDS011;6454;43.304;24.344;2024-03-08T08:47:50;35.78;;;15.93;;
12780;SDS011;6454;43.304;24.344;2024-03-08T08:50:16;36.95;;;15.93;;
12780;SDS011;6454;43.304;24.344;2024-03-08T08:52:48;35.90;;;17.30;;
12780;SDS011;6454;43.304;24.344;2024-03-08T08:55:14;35.22;;;16.63;;
12780;SDS011;6454;43.304;24.344;2024-03-08T08:57:42;35.85;;;15.95;;
12780;SDS011;6454;43.304;24.344;2024-03-08T09:00:09;37.05;;;17.73;;
12780;SDS011;6454;43.304;24.344;2024-03-08T09:02:40;38.72;;;16.15;;
12780;SDS011;6454;43.304;24.344;2024-03-08T09:05:06;40.35;;;18.23;;
12780;SDS011;6454;43.304;24.344;2024-03-08T09:07:33;41.35;;;17.13;;
12780;SDS011;6454;43.304;24.344;2024-03-08T09:09:59;39.92;;;17.10;;
12780;SDS011;6454;43.304;24.344;2024-03-08T09:12:25;41.97;;;16.45;;
12780;SDS011;6454;43.304;24.344;2024-03-08T09:14:51;38.00;;;17.17;;
12780;SDS011;6454;43.304;24.344;2024-03-08T09:17:16;37.63;;;17.05;;
12780;SDS011;6454;43.304;24.344;2024-03-08T09:19:46;42.15;;;18.25;;
12780;SDS011;6454;43.304;24.344;2024-03-08T09:22:13;41.05;;;18.00;;
12780;SDS011;6454;43.304;24.344;2024-03-08T09:24:39;34.03;;;15.48;;
12780;SDS011;6454;43.304;24.344;2024-03-08T09:27:05;39.55;;;17.85;;
12780;SDS011;6454;43.304;24.344;2024-03-08T09:29:30;41.75;;;18.10;;
12780;SDS011;6454;43.304;24.344;2024-03-08T09:31:56;39.33;;;18.80;;
12780;SDS011;6454;43.304;24.344;2024-03-08T09:34:21;41.13;;;18.20;;
12780;SDS011;6454;43.304;24.344;2024-03-08T09:36:47;42.47;;;18.13;;
12780;SDS011;6454;43.304;24.344;2024-03-08T09:39:13;42.63;;;18.02;;
12780;SDS011;6454;43.304;24.344;2024-03-08T09:41:44;45.75;;;17.52;;
12780;SDS011;6454;43.304;24.344;2024-03-08T09:44:13;39.05;;;19.45;;
12780;SDS011;6454;43.304;24.344;2024-03-08T09:46:39;43.40;;;18.67;;
12780;SDS011;6454;43.304;24.344;2024-03-08T09:49:05;44.35;;;18.73;;
12780;SDS011;6454;43.304;24.344;2024-03-08T09:51:32;44.08;;;19.17;;
12780;SDS011;6454;43.304;24.344;2024-03-08T09:54:00;46.80;;;19.17;;
12780;SDS011;6454;43.304;24.344;2024-03-08T09:56:29;44.90;;;17.75;;
12780;SDS011;6454;43.304;24.344;2024-03-08T09:58:57;44.10;;;19.40;;
12780;SDS011;6454;43.304;24.344;2024-03-08T10:01:42;34.20;;;15.23;;
12780;SDS011;6454;43.304;24.344;2024-03-08T10:04:07;40.35;;;17.27;;
12780;SDS011;6454;43.304;24.344;2024-03-08T10:06:35;43.65;;;17.70;;
12780;SDS011;6454;43.304;24.344;2024-03-08T10:09:01;41.08;;;18.23;;
12780;SDS011;6454;43.304;24.344;2024-03-08T10:11:26;41.30;;;17.80;;
12780;SDS011;6454;43.304;24.344;2024-03-08T10:13:52;43.75;;;19.58;;
12780;SDS011;6454;43.304;24.344;2024-03-08T10:16:18;41.92;;;18.13;;
12780;SDS011;6454;43.304;24.344;2024-03-08T10:18:46;44.40;;;20.50;;
12780;SDS011;6454;43.304;24.344;2024-03-08T10:21:12;44.83;;;18.50;;
12780;SDS011;6454;43.304;24.344;2024-03-08T10:23:39;43.95;;;18.92;;
12780;SDS011;6454;43.304;24.344;2024-03-08T10:26:14;46.42;;;20.35;;
12780;SDS011;6454;43.304;24.344;2024-03-08T10:28:44;39.38;;;16.33;;
12780;SDS011;6454;43.304;24.344;2024-03-08T10:31:10;43.45;;;18.60;;
12780;SDS011;6454;43.304;24.344;2024-03-08T10:33:36;46.90;;;18.92;;
12780;SDS011;6454;43.304;24.344;2024-03-08T10:36:05;44.50;;;19.17;;
12780;SDS011;6454;43.304;24.344;2024-03-08T10:38:32;47.25;;;20.40;;
12780;SDS011;6454;43.304;24.344;2024-03-08T10:41:01;46.92;;;18.58;;
12780;SDS011;6454;43.304;24.344;2024-03-08T10:43:31;42.72;;;17.25;;
12780;SDS011;6454;43.304;24.344;2024-03-08T10:46:27;40.17;;;18.35;;
12780;SDS011;6454;43.304;24.344;2024-03-08T10:48:59;37.80;;;17.20;;
12780;SDS011;6454;43.304;24.344;2024-03-08T10:51:29;43.95;;;18.45;;
12780;SDS011;6454;43.304;24.344;2024-03-08T10:53:56;40.28;;;19.05;;
12780;SDS011;6454;43.304;24.344;2024-03-08T10:56:22;40.58;;;17.60;;
12780;SDS011;6454;43.304;24.344;2024-03-08T10:58:48;40.33;;;18.23;;
12780;SDS011;6454;43.304;24.344;2024-03-08T11:01:14;33.60;;;15.77;;
12780;SDS011;6454;43.304;24.344;2024-03-08T11:06:08;42.30;;;17.60;;
12780;SDS011;6454;43.304;24.344;2024-03-08T11:08:40;41.30;;;16.90;;
12780;SDS011;6454;43.304;24.344;2024-03-08T11:11:05;49.63;;;21.00;;
12780;SDS011;6454;43.304;24.344;2024-03-08T11:13:52;40.15;;;18.73;;
12780;SDS011;6454;43.304;24.344;2024-03-08T11:19:44;43.78;;;19.83;;
12780;SDS011;6454;43.304;24.344;2024-03-08T11:21:39;50.40;;;21.58;;
12780;SDS011;6454;43.304;24.344;2024-03-08T11:24:10;43.50;;;19.17;;
12780;SDS011;6454;43.304;24.344;2024-03-08T11:26:42;44.45;;;19.83;;
12780;SDS011;6454;43.304;24.344;2024-03-08T11:29:45;41.10;;;18.15;;
12780;SDS011;6454;43.304;24.344;2024-03-08T11:34:40;35.47;;;16.75;;
12780;SDS011;6454;43.304;24.344;2024-03-08T11:37:21;35.75;;;15.55;;
12780;SDS011;6454;43.304;24.344;2024-03-08T11:39:47;37.85;;;16.85;;
12780;SDS011;6454;43.304;24.344;2024-03-08T11:42:18;38.97;;;16.23;;
12780;SDS011;6454;43.304;24.344;2024-03-08T11:44:47;38.55;;;16.42;;
12780;SDS011;6454;43.304;24.344;2024-03-08T11:47:15;41.20;;;17.15;;
12780;SDS011;6454;43.304;24.344;2024-03-08T11:49:41;40.75;;;17.77;;
12780;SDS011;6454;43.304;24.344;2024-03-08T11:52:12;36.40;;;16.05;;
12780;SDS011;6454;43.304;24.344;2024-03-08T11:54:39;35.05;;;16.13;;
12780;SDS011;6454;43.304;24.344;2024-03-08T11:57:05;42.58;;;18.73;;
12780;SDS011;6454;43.304;24.344;2024-03-08T11:59:31;41.30;;;17.38;;
12780;SDS011;6454;43.304;24.344;2024-03-08T12:02:04;42.88;;;17.00;;
12780;SDS011;6454;43.304;24.344;2024-03-08T12:04:31;37.83;;;18.05;;
12780;SDS011;6454;43.304;24.344;2024-03-08T12:07:00;32.78;;;16.98;;
12780;SDS011;6454;43.304;24.344;2024-03-08T12:09:34;36.15;;;15.45;;
12780;SDS011;6454;43.304;24.344;2024-03-08T12:12:03;34.67;;;16.63;;
12780;SDS011;6454;43.304;24.344;2024-03-08T12:14:32;38.47;;;15.45;;
12780;SDS011;6454;43.304;24.344;2024-03-08T12:16:59;39.25;;;18.02;;
12780;SDS011;6454;43.304;24.344;2024-03-08T12:19:26;33.83;;;16.27;;
12780;SDS011;6454;43.304;24.344;2024-03-08T12:21:53;37.17;;;17.15;;
12780;SDS011;6454;43.304;24.344;2024-03-08T12:24:19;39.42;;;18.20;;
12780;SDS011;6454;43.304;24.344;2024-03-08T12:26:46;39.38;;;17.50;;
12780;SDS011;6454;43.304;24.344;2024-03-08T12:29:16;38.78;;;18.17;;
12780;SDS011;6454;43.304;24.344;2024-03-08T12:31:45;37.35;;;16.55;;
12780;SDS011;6454;43.304;24.344;2024-03-08T12:34:12;36.13;;;16.27;;
12780;SDS011;6454;43.304;24.344;2024-03-08T12:36:43;33.03;;;16.30;;
12780;SDS011;6454;43.304;24.344;2024-03-08T12:39:12;38.50;;;16.08;;
12780;SDS011;6454;43.304;24.344;2024-03-08T12:41:40;37.42;;;16.98;;
12780;SDS011;6454;43.304;24.344;2024-03-08T12:44:06;39.40;;;16.80;;
12780;SDS011;6454;43.304;24.344;2024-03-08T12:46:36;40.80;;;16.65;;
12780;SDS011;6454;43.304;24.344;2024-03-08T12:49:09;42.10;;;17.75;;
12780;SDS011;6454;43.304;24.344;2024-03-08T12:51:35;40.40;;;16.92;;
12780;SDS011;6454;43.304;24.344;2024-03-08T12:54:01;34.55;;;15.68;;
12780;SDS011;6454;43.304;24.344;2024-03-08T12:56:31;34.25;;;14.27;;
12780;SDS011;6454;43.304;24.344;2024-03-08T12:58:58;37.22;;;15.23;;
12780;SDS011;6454;43.304;24.344;2024-03-08T13:01:25;35.33;;;15.00;;
12780;SDS011;6454;43.304;24.344;2024-03-08T13:03:51;38.47;;;15.57;;
12780;SDS011;6454;43.304;24.344;2024-03-08T13:06:18;35.45;;;15.43;;
12780;SDS011;6454;43.304;24.344;2024-03-08T13:08:46;37.25;;;15.43;;
12780;SDS011;6454;43.304;24.344;2024-03-08T13:11:13;36.60;;;17.38;;
12780;SDS011;6454;43.304;24.344;2024-03-08T13:13:42;39.13;;;16.70;;
12780;SDS011;6454;43.304;24.344;2024-03-08T13:16:08;38.63;;;17.33;;
12780;SDS011;6454;43.304;24.344;2024-03-08T13:18:36;39.33;;;17.52;;
12780;SDS011;6454;43.304;24.344;2024-03-08T13:21:02;36.13;;;15.63;;
12780;SDS011;6454;43.304;24.344;2024-03-08T13:23:32;37.58;;;17.27;;
12780;SDS011;6454;43.304;24.344;2024-03-08T13:25:58;38.80;;;17.80;;
12780;SDS011;6454;43.304;24.344;2024-03-08T13:28:24;35.10;;;15.88;;
12780;SDS011;6454;43.304;24.344;2024-03-08T13:30:54;38.10;;;17.48;;
12780;SDS011;6454;43.304;24.344;2024-03-08T13:33:23;40.20;;;18.48;;
12780;SDS011;6454;43.304;24.344;2024-03-08T13:35:48;36.50;;;16.27;;
12780;SDS011;6454;43.304;24.344;2024-03-08T13:38:15;30.15;;;15.07;;
12780;SDS011;6454;43.304;24.344;2024-03-08T13:40:43;37.17;;;16.95;;
12780;SDS011;6454;43.304;24.344;2024-03-08T13:43:08;37.33;;;16.48;;
12780;SDS011;6454;43.304;24.344;2024-03-08T13:45:34;34.47;;;15.98;;
12780;SDS011;6454;43.304;24.344;2024-03-08T13:48:03;36.15;;;15.70;;
12780;SDS011;6454;43.304;24.344;2024-03-08T13:50:37;32.60;;;15.48;;
12780;SDS011;6454;43.304;24.344;2024-03-08T13:53:03;35.55;;;16.55;;
12780;SDS011;6454;43.304;24.344;2024-03-08T13:55:28;38.28;;;15.65;;
12780;SDS011;6454;43.304;24.344;2024-03-08T13:57:54;30.48;;;14.73;;
12780;SDS011;6454;43.304;24.344;2024-03-08T14:00:19;31.35;;;15.75;;
12780;SDS011;6454;43.304;24.344;2024-03-08T14:02:48;32.78;;;15.90;;
12780;SDS011;6454;43.304;24.344;2024-03-08T14:05:14;37.50;;;17.02;;
12780;SDS011;6454;43.304;24.344;2024-03-08T14:07:41;40.00;;;16.23;;
12780;SDS011;6454;43.304;24.344;2024-03-08T14:10:06;37.38;;;16.35;;
12780;SDS011;6454;43.304;24.344;2024-03-08T14:12:34;40.15;;;17.17;;
12780;SDS011;6454;43.304;24.344;2024-03-08T14:15:00;39.22;;;16.17;;
12780;SDS011;6454;43.304;24.344;2024-03-08T14:17:27;32.88;;;15.20;;
12780;SDS011;6454;43.304;24.344;2024-03-08T14:19:56;36.05;;;17.52;;
12780;SDS011;6454;43.304;24.344;2024-03-08T14:22:21;37.22;;;15.75;;
12780;SDS011;6454;43.304;24.344;2024-03-08T14:24:48;36.58;;;18.20;;
12780;SDS011;6454;43.304;24.344;2024-03-08T14:27:14;40.88;;;16.92;;
12780;SDS011;6454;43.304;24.344;2024-03-08T14:29:42;42.70;;;18.02;;